Time;durP1;ratioP1;P1;durP2;ratioP2;P2;SDS_P1;SDS_P2;PMS_P1;PMS_P2;Temp;Humidity;BMP_temperature;BMP_pressure;BME280_temperature;BME280_humidity;BME280_pressure;Samples;Min_cycle;Max_cycle;Signal;HPM_P1;HPM_P2
2023/12/17 00:04:12;;;;;;;0.77;0.73;;;;;;;-0.88;100.00;99345.16;10476726;28;20025;-60
2023/12/17 00:09:14;;;;;;;1.38;0.88;;;;;;;-0.85;100.00;99314.25;10447472;28;20037;-60
2023/12/17 00:14:18;;;;;;;0.73;0.50;;;;;;;-0.80;100.00;99304.41;10449032;28;20049;-60
2023/12/17 00:19:20;;;;;;;0.70;0.68;;;;;;;-0.79;100.00;99279.09;10429508;28;20041;-60
2023/12/17 00:24:22;;;;;;;0.70;0.57;;;;;;;-0.78;100.00;99261.88;10433155;28;20045;-60
2023/12/17 00:29:26;;;;;;;0.70;0.65;;;;;;;-0.75;100.00;99239.84;10444570;28;20409;-60
2023/12/17 00:34:28;;;;;;;0.50;0.50;;;;;;;-0.76;100.00;99215.84;10464644;28;20029;-60
2023/12/17 00:39:30;;;;;;;0.65;0.60;;;;;;;-0.73;100.00;99199.22;10447197;28;20053;-59
2023/12/17 00:44:33;;;;;;;0.40;0.40;;;;;;;-0.74;100.00;99186.81;10445545;28;20053;-60
2023/12/17 00:49:35;;;;;;;0.50;0.50;;;;;;;-0.72;100.00;99177.41;10447474;28;20041;-60
2023/12/17 00:54:38;;;;;;;0.30;0.30;;;;;;;-0.68;100.00;99170.50;10443343;28;20076;-60
2023/12/17 00:59:41;;;;;;;0.30;0.30;;;;;;;-0.64;100.00;99160.06;10447750;28;20104;-60
2023/12/17 01:04:44;;;;;;;0.30;0.30;;;;;;;-0.59;100.00;99138.56;10448159;28;20038;-60
2023/12/17 01:09:48;;;;;;;0.10;0.10;;;;;;;-0.55;100.00;99107.38;10446039;28;20052;-59
2023/12/17 01:14:52;;;;;;;0.20;0.20;;;;;;;-0.58;100.00;99098.97;10444957;28;20029;-60
2023/12/17 01:19:56;;;;;;;0.20;0.20;;;;;;;-0.56;100.00;99089.59;10417825;28;20046;-60
2023/12/17 01:24:58;;;;;;;0.30;0.30;;;;;;;-0.58;100.00;99059.38;10455316;28;20064;-60
2023/12/17 01:30:00;;;;;;;0.13;0.13;;;;;;;-0.55;100.00;99048.09;10443956;28;20416;-60
2023/12/17 01:35:04;;;;;;;0.57;0.50;;;;;;;-0.56;100.00;99041.09;10408474;28;20476;-60
2023/12/17 01:40:08;;;;;;;0.00;0.00;;;;;;;-0.56;100.00;99022.22;10448234;28;20052;-60
2023/12/17 01:45:10;;;;;;;0.40;0.30;;;;;;;-0.53;100.00;99020.91;10444080;28;20045;-61
2023/12/17 01:50:13;;;;;;;0.22;0.22;;;;;;;-0.49;100.00;99000.53;10443196;28;20075;-60
2023/12/17 01:55:15;;;;;;;0.10;0.10;;;;;;;-0.47;100.00;99007.28;10436322;28;20408;-60
2023/12/17 02:00:18;;;;;;;0.20;0.20;;;;;;;-0.40;100.00;98996.31;10441913;28;20041;-60
2023/12/17 02:05:21;;;;;;;0.00;0.00;;;;;;;-0.38;100.00;98980.72;10442258;28;20039;-59
2023/12/17 02:10:24;;;;;;;0.65;0.10;;;;;;;-0.27;100.00;98981.66;10422609;28;20815;-60
2023/12/17 02:15:27;;;;;;;0.25;0.10;;;;;;;-0.19;100.00;98976.63;10431771;28;20037;-60
2023/12/17 02:20:31;;;;;;;0.10;0.10;;;;;;;-0.18;100.00;98947.78;10431622;28;20433;-60
2023/12/17 02:25:34;;;;;;;0.20;0.20;;;;;;;-0.05;100.00;98956.31;10435386;28;20041;-60
2023/12/17 02:30:38;;;;;;;0.20;0.10;;;;;;;0.11;100.00;98946.50;10421215;28;20073;-60
2023/12/17 02:35:42;;;;;;;0.38;0.30;;;;;;;0.26;100.00;98932.34;10441555;28;20034;-60
2023/12/17 02:40:45;;;;;;;0.20;0.10;;;;;;;0.35;100.00;98944.31;10437424;28;20045;-60
2023/12/17 02:45:48;;;;;;;0.40;0.20;;;;;;;0.45;100.00;98943.56;10432888;28;20448;-60
2023/12/17 02:50:50;;;;;;;0.30;0.30;;;;;;;0.49;100.00;98939.28;10440157;28;20423;-60
2023/12/17 02:55:52;;;;;;;0.95;0.20;;;;;;;0.53;100.00;98929.63;10437830;28;20041;-60
2023/12/17 03:00:56;;;;;;;0.10;0.10;;;;;;;0.50;100.00;98920.13;10434863;28;20037;-60
2023/12/17 03:05:59;;;;;;;0.40;0.30;;;;;;;0.65;100.00;98922.16;10410904;28;20048;-60
2023/12/17 03:11:02;;;;;;;0.30;0.30;;;;;;;0.76;100.00;98934.66;10440264;28;20528;-60
2023/12/17 03:16:08;;;;;;;0.68;0.68;;;;;;;0.85;100.00;98946.59;10439290;28;20516;-60
2023/12/17 03:21:12;;;;;;;1.42;0.60;;;;;;;1.06;100.00;98954.84;10424415;28;20041;-60
2023/12/17 03:26:15;;;;;;;1.88;0.50;;;;;;;1.17;100.00;98970.03;10417481;28;20034;-60
2023/12/17 03:31:18;;;;;;;2.25;0.80;;;;;;;1.25;100.00;98972.25;10435845;28;20076;-59
2023/12/17 03:36:25;;;;;;;3.25;0.60;;;;;;;1.24;100.00;98983.34;10433251;28;20041;-60
2023/12/17 03:41:28;;;;;;;2.55;0.60;;;;;;;1.22;100.00;98997.09;10439166;28;20424;-60
2023/12/17 03:46:30;;;;;;;1.60;0.45;;;;;;;1.17;100.00;98999.75;10438071;28;20061;-60
2023/12/17 03:51:33;;;;;;;1.00;0.40;;;;;;;1.17;100.00;99019.47;10438310;28;20507;-60
2023/12/17 03:56:36;;;;;;;2.28;0.90;;;;;;;1.17;100.00;99037.56;10437838;28;20502;-60
2023/12/17 04:01:45;;;;;;;1.65;0.40;;;;;;;1.13;100.00;99042.69;10438541;28;20046;-60
2023/12/17 04:06:49;;;;;;;0.25;0.20;;;;;;;1.10;100.00;99048.59;10438778;28;20151;-60
2023/12/17 04:11:51;;;;;;;0.40;0.30;;;;;;;1.07;100.00;99075.31;10447334;28;20037;-60
2023/12/17 04:16:54;;;;;;;0.38;0.38;;;;;;;1.00;100.00;99085.50;10441346;28;20049;-62
2023/12/17 04:21:56;;;;;;;1.77;0.90;;;;;;;0.96;100.00;99106.00;10449798;28;20049;-59
2023/12/17 04:26:58;;;;;;;2.00;0.65;;;;;;;0.90;100.00;99127.56;10449627;28;20037;-60
2023/12/17 04:32:01;;;;;;;0.20;0.20;;;;;;;0.85;100.00;99148.28;10434475;28;20646;-60
2023/12/17 04:37:03;;;;;;;0.73;0.30;;;;;;;0.84;100.00;99150.16;10431086;28;20060;-60
2023/12/17 04:42:07;;;;;;;0.40;0.20;;;;;;;0.78;100.00;99153.09;10444916;28;20510;-61
2023/12/17 04:47:09;;;;;;;0.40;0.30;;;;;;;0.75;100.00;99159.81;10429745;28;20425;-59
2023/12/17 04:52:11;;;;;;;0.65;0.30;;;;;;;0.72;100.00;99181.09;10444113;28;20041;-60
2023/12/17 04:57:15;;;;;;;0.30;0.20;;;;;;;0.66;100.00;99191.00;10433577;28;20040;-60
2023/12/17 05:02:18;;;;;;;0.70;0.47;;;;;;;0.63;100.00;99207.72;10406744;28;20668;-60
2023/12/17 05:07:20;;;;;;;0.28;0.28;;;;;;;0.59;100.00;99228.19;10442061;28;20036;-60
2023/12/17 05:12:24;;;;;;;1.73;0.40;;;;;;;0.54;100.00;99228.94;10411989;28;20077;-60
2023/12/17 05:17:27;;;;;;;0.98;0.28;;;;;;;0.51;100.00;99239.38;10437252;28;20050;-60
2023/12/17 05:22:29;;;;;;;1.15;0.20;;;;;;;0.50;100.00;99262.06;10444828;28;20057;-60
2023/12/17 05:27:31;;;;;;;0.22;0.22;;;;;;;0.49;100.00;99265.81;10443486;28;20528;-62
2023/12/17 05:32:34;;;;;;;0.63;0.30;;;;;;;0.43;100.00;99266.81;10404185;28;20049;-60
2023/12/17 05:37:36;;;;;;;0.88;0.30;;;;;;;0.40;100.00;99297.00;10402780;28;20068;-60
2023/12/17 05:42:39;;;;;;;1.20;0.30;;;;;;;0.40;100.00;99319.41;10438475;28;20049;-60
2023/12/17 05:47:41;;;;;;;0.60;0.40;;;;;;;0.37;100.00;99316.41;10430130;28;20049;-60
2023/12/17 05:52:44;;;;;;;0.45;0.45;;;;;;;0.33;100.00;99318.75;10443729;28;20512;-60
2023/12/17 05:57:50;;;;;;;1.73;0.40;;;;;;;0.33;100.00;99342.22;10442300;28;20045;-60
2023/12/17 06:02:52;;;;;;;1.70;0.40;;;;;;;0.28;100.00;99354.56;10443708;28;20053;-61
2023/12/17 06:07:55;;;;;;;1.42;0.30;;;;;;;0.16;100.00;99370.00;10442560;28;20411;-61
2023/12/17 06:12:57;;;;;;;0.60;0.30;;;;;;;0.09;100.00;99392.81;10439840;28;20044;-60
2023/12/17 06:17:59;;;;;;;0.40;0.30;;;;;;;-0.01;100.00;99396.13;10440129;28;20049;-60
2023/12/17 06:23:02;;;;;;;2.25;0.57;;;;;;;-0.02;100.00;99405.28;10407062;28;20052;-61
2023/12/17 06:28:05;;;;;;;0.20;0.20;;;;;;;-0.05;100.00;99430.03;10402336;28;20048;-61
2023/12/17 06:33:07;;;;;;;0.63;0.30;;;;;;;-0.01;100.00;99433.88;10428547;28;20487;-61
2023/12/17 06:38:10;;;;;;;1.50;0.40;;;;;;;-0.01;100.00;99432.00;10441480;28;20049;-60
2023/12/17 06:43:12;;;;;;;1.65;0.47;;;;;;;0.00;100.00;99438.25;10426494;28;20041;-61
2023/12/17 06:48:15;;;;;;;1.35;0.40;;;;;;;0.02;100.00;99462.28;10442255;28;20049;-60
2023/12/17 06:53:17;;;;;;;0.40;0.28;;;;;;;0.01;100.00;99477.63;10420690;28;20042;-60
2023/12/17 06:58:20;;;;;;;1.55;0.65;;;;;;;0.02;100.00;99489.25;10401208;28;20045;-60
2023/12/17 07:03:22;;;;;;;0.40;0.40;;;;;;;0.07;100.00;99500.13;10427376;28;20037;-60
2023/12/17 07:08:26;;;;;;;2.92;0.65;;;;;;;0.03;100.00;99491.69;10440393;28;20049;-60
2023/12/17 07:13:29;;;;;;;2.10;0.70;;;;;;;0.07;100.00;99508.22;10438732;28;20250;-60
2023/12/17 07:18:31;;;;;;;2.75;0.70;;;;;;;0.08;100.00;99513.38;10424620;28;20037;-60
2023/12/17 07:23:34;;;;;;;2.35;0.50;;;;;;;0.10;100.00;99524.72;10419193;28;20049;-60
2023/12/17 07:28:36;;;;;;;0.65;0.35;;;;;;;0.11;100.00;99544.44;10417320;28;20048;-60
2023/12/17 07:33:39;;;;;;;1.40;0.60;;;;;;;0.08;100.00;99545.72;10420939;28;20091;-60
2023/12/17 07:38:43;;;;;;;1.85;0.60;;;;;;;0.11;100.00;99566.00;10435588;28;20044;-60
2023/12/17 07:43:45;;;;;;;0.80;0.47;;;;;;;0.10;100.00;99562.50;10438912;28;20037;-61
2023/12/17 07:48:47;;;;;;;1.17;0.40;;;;;;;0.12;100.00;99578.44;10444835;28;20043;-61
2023/12/17 07:53:49;;;;;;;2.10;0.75;;;;;;;0.12;100.00;99595.44;10436923;28;20045;-61
2023/12/17 07:58:52;;;;;;;2.17;0.70;;;;;;;0.11;100.00;99595.66;10443099;28;20536;-61
2023/12/17 08:03:55;;;;;;;0.63;0.40;;;;;;;0.12;100.00;99619.72;10442732;28;20068;-61
2023/12/17 08:08:57;;;;;;;1.50;0.55;;;;;;;0.12;100.00;99646.69;10421480;28;20524;-61
2023/12/17 08:14:00;;;;;;;5.07;0.40;;;;;;;0.10;100.00;99643.41;10441492;28;20048;-59
2023/12/17 08:19:02;;;;;;;3.53;0.70;;;;;;;0.12;100.00;99652.06;10419036;28;20579;-61
2023/12/17 08:24:04;;;;;;;1.85;0.65;;;;;;;0.15;100.00;99673.16;10443225;28;20033;-60
2023/12/17 08:29:07;;;;;;;2.10;0.90;;;;;;;0.13;100.00;99679.88;10444403;28;20033;-60
2023/12/17 08:34:09;;;;;;;4.03;1.17;;;;;;;0.10;100.00;99691.97;10458968;28;20037;-60
2023/12/17 08:39:13;;;;;;;2.17;1.30;;;;;;;0.13;100.00;99685.25;10444322;28;20044;-60
2023/12/17 08:44:22;;;;;;;4.47;1.45;;;;;;;0.15;100.00;99691.25;10443771;28;20057;-59
2023/12/17 08:49:25;;;;;;;2.10;1.05;;;;;;;0.16;100.00;99698.28;10443558;28;20512;-61
2023/12/17 08:54:27;;;;;;;4.50;1.75;;;;;;;0.15;100.00;99702.03;10440781;28;20038;-61
2023/12/17 08:59:30;;;;;;;3.33;1.35;;;;;;;0.17;100.00;99716.91;10443497;28;20041;-61
2023/12/17 09:04:32;;;;;;;2.75;1.30;;;;;;;0.16;100.00;99717.16;10444410;28;20037;-61
2023/12/17 09:09:34;;;;;;;3.55;1.60;;;;;;;0.22;100.00;99724.31;10443882;28;20060;-59
2023/12/17 09:14:38;;;;;;;4.00;1.63;;;;;;;0.28;100.00;99723.38;10435258;28;20394;-60
2023/12/17 09:19:40;;;;;;;4.78;1.48;;;;;;;0.28;100.00;99731.47;10442035;28;20428;-59
2023/12/17 09:24:42;;;;;;;3.17;1.52;;;;;;;0.35;100.00;99725.94;10442618;28;20045;-60
2023/12/17 09:29:45;;;;;;;2.65;1.15;;;;;;;0.42;100.00;99721.25;10439660;28;20422;-61
2023/12/17 09:34:48;;;;;;;2.15;1.00;;;;;;;0.42;100.00;99722.06;10450891;28;20408;-61
2023/12/17 09:39:50;;;;;;;1.05;0.95;;;;;;;0.44;99.01;99730.75;10438654;28;20037;-61
2023/12/17 09:44:53;;;;;;;2.17;1.08;;;;;;;0.52;99.00;99740.34;10439489;28;20429;-61
2023/12/17 09:49:56;;;;;;;2.30;1.00;;;;;;;0.53;98.33;99744.72;10459655;28;20409;-61
2023/12/17 09:55:03;;;;;;;4.32;0.90;;;;;;;0.41;97.82;99749.28;10440038;28;20703;-61
2023/12/17 10:00:10;;;;;;;1.77;0.90;;;;;;;0.37;97.46;99751.66;10437758;28;20064;-60
2023/12/17 10:05:13;;;;;;;2.50;0.80;;;;;;;0.27;97.36;99762.19;10440623;28;20413;-61
2023/12/17 10:10:17;;;;;;;1.85;0.90;;;;;;;0.24;97.71;99760.81;10436596;28;20037;-61
2023/12/17 10:15:20;;;;;;;1.98;1.02;;;;;;;0.19;96.71;99776.06;10437653;28;20832;-61
2023/12/17 10:20:23;;;;;;;2.75;0.90;;;;;;;0.20;96.68;99794.72;10440200;28;20033;-61
2023/12/17 10:25:26;;;;;;;1.95;1.10;;;;;;;0.19;97.02;99805.72;10437422;28;20037;-61
2023/12/17 10:30:30;;;;;;;2.72;0.68;;;;;;;0.23;96.14;99805.03;10438776;28;20037;-61
2023/12/17 10:35:33;;;;;;;2.40;0.80;;;;;;;0.35;96.23;99817.69;10439948;28;20497;-61
2023/12/17 10:40:40;;;;;;;3.90;1.40;;;;;;;0.40;95.26;99820.53;10435967;28;20045;-61
2023/12/17 10:45:43;;;;;;;4.53;1.30;;;;;;;0.35;95.10;99832.03;10460488;28;20053;-61
2023/12/17 10:50:46;;;;;;;3.95;1.52;;;;;;;0.36;94.83;99836.38;10437088;28;20513;-61
2023/12/17 10:55:49;;;;;;;2.88;1.30;;;;;;;0.29;94.30;99825.66;10437873;28;20038;-61
2023/12/17 11:00:51;;;;;;;3.40;0.93;;;;;;;0.22;94.52;99843.84;10441853;28;20033;-61
2023/12/17 11:05:58;;;;;;;2.47;0.80;;;;;;;0.16;94.78;99843.94;10440183;28;20041;-61
2023/12/17 11:11:01;;;;;;;2.22;1.25;;;;;;;0.13;95.18;99847.09;10456760;28;20041;-61
2023/12/17 11:16:17;;;;;;;2.55;0.93;;;;;;;0.05;95.18;99853.69;10439455;28;20029;-61
2023/12/17 11:21:19;;;;;;;2.45;1.10;;;;;;;0.06;95.45;99851.81;10438845;28;20041;-62
2023/12/17 11:26:22;;;;;;;2.30;0.80;;;;;;;0.07;95.44;99854.25;10435443;28;20037;-61
2023/12/17 11:31:26;;;;;;;2.03;0.80;;;;;;;0.04;96.08;99857.44;10441562;28;20052;-62
2023/12/17 11:36:29;;;;;;;2.08;0.90;;;;;;;0.00;96.00;99850.88;10437328;28;20694;-62
2023/12/17 11:41:31;;;;;;;3.42;1.00;;;;;;;-0.02;96.28;99859.16;10466441;28;20045;-62
2023/12/17 11:46:34;;;;;;;4.32;0.98;;;;;;;-0.05;96.85;99864.19;10439227;28;20437;-62
2023/12/17 11:51:37;;;;;;;2.90;0.70;;;;;;;-0.09;97.37;99876.50;10432999;28;20037;-67
2023/12/17 11:56:39;;;;;;;2.17;0.90;;;;;;;-0.17;97.29;99885.75;10433699;28;20044;-68
2023/12/17 12:01:43;;;;;;;4.43;1.10;;;;;;;-0.19;97.38;99884.31;10438127;28;20148;-69
2023/12/17 12:06:46;;;;;;;6.97;1.33;;;;;;;-0.19;98.07;99898.63;10437586;28;20064;-67
2023/12/17 12:11:49;;;;;;;4.15;0.70;;;;;;;-0.25;98.20;99914.91;10423107;28;20052;-67
2023/12/17 12:16:54;;;;;;;2.22;0.65;;;;;;;-0.23;97.70;99913.63;10426564;28;20029;-68
2023/12/17 12:21:57;;;;;;;2.22;0.85;;;;;;;-0.29;98.31;99919.09;10429665;28;20046;-68
2023/12/17 12:27:04;;;;;;;1.25;0.70;;;;;;;-0.33;98.14;99930.34;10429114;28;20033;-68
2023/12/17 12:32:09;;;;;;;2.83;1.02;;;;;;;-0.36;98.56;99932.66;10433092;28;20044;-66
2023/12/17 12:37:11;;;;;;;1.70;0.68;;;;;;;-0.41;98.66;99921.72;10433321;28;20045;-69
2023/12/17 12:42:18;;;;;;;1.48;0.80;;;;;;;-0.49;98.79;99933.66;10445685;28;20037;-68
2023/12/17 12:47:22;;;;;;;4.25;0.80;;;;;;;-0.54;99.35;99932.66;10446160;28;20057;-68
2023/12/17 12:52:24;;;;;;;3.42;1.00;;;;;;;-0.55;99.60;99922.94;10442720;28;20037;-68
2023/12/17 12:57:27;;;;;;;3.05;1.05;;;;;;;-0.56;99.44;99921.31;10442080;28;20041;-68
2023/12/17 13:02:31;;;;;;;3.95;0.98;;;;;;;-0.47;99.03;99934.25;10441000;28;20417;-68
2023/12/17 13:07:34;;;;;;;5.35;0.90;;;;;;;-0.50;99.26;99937.41;10446786;28;20037;-69
2023/12/17 13:12:36;;;;;;;4.13;1.10;;;;;;;-0.53;99.15;99942.41;10446913;28;20053;-68
2023/12/17 13:17:40;;;;;;;4.00;1.13;;;;;;;-0.59;98.97;99952.22;10442259;28;20037;-68
2023/12/17 13:22:42;;;;;;;3.90;1.02;;;;;;;-0.68;98.92;99945.50;10445952;28;20139;-68
2023/12/17 13:27:46;;;;;;;5.40;1.17;;;;;;;-0.71;99.25;99940.53;10445856;28;20029;-68
2023/12/17 13:32:48;;;;;;;4.93;1.42;;;;;;;-0.69;99.71;99946.56;10444149;28;20045;-68
2023/12/17 13:37:51;;;;;;;1.63;0.90;;;;;;;-0.71;99.47;99937.84;10436796;28;20037;-68
2023/12/17 13:42:54;;;;;;;3.08;1.08;;;;;;;-0.70;99.45;99943.00;10414068;28;20046;-68
2023/12/17 13:47:57;;;;;;;4.57;0.93;;;;;;;-0.69;100.00;99943.84;10408288;28;20045;-68
2023/12/17 13:53:00;;;;;;;3.42;0.73;;;;;;;-0.65;99.81;99936.97;10445000;28;20049;-68
2023/12/17 13:58:02;;;;;;;1.45;0.70;;;;;;;-0.71;99.52;99917.13;10444563;28;20029;-68
2023/12/17 14:03:06;;;;;;;1.70;0.75;;;;;;;-0.63;100.00;99921.38;10442227;28;20402;-68
2023/12/17 14:08:09;;;;;;;3.83;1.05;;;;;;;-0.61;100.00;99922.00;10407020;28;20655;-68
2023/12/17 14:13:12;;;;;;;4.53;1.35;;;;;;;-0.55;99.92;99917.56;10426339;28;20073;-68
2023/12/17 14:18:14;;;;;;;6.25;1.27;;;;;;;-0.58;99.92;99921.53;10407231;28;20045;-68
2023/12/17 14:23:17;;;;;;;2.38;1.00;;;;;;;-0.53;99.11;99910.88;10425794;28;20429;-68
2023/12/17 14:28:19;;;;;;;2.53;0.98;;;;;;;-0.52;99.43;99915.25;10443445;28;20040;-68
2023/12/17 14:33:21;;;;;;;3.95;0.95;;;;;;;-0.47;99.53;99912.69;10443700;28;20037;-68
2023/12/17 14:38:24;;;;;;;2.40;0.80;;;;;;;-0.49;99.34;99904.03;10442893;28;20045;-68
2023/12/17 14:43:26;;;;;;;2.47;1.15;;;;;;;-0.40;98.82;99899.94;10441785;28;20564;-68
2023/12/17 14:48:29;;;;;;;2.97;1.02;;;;;;;-0.39;98.77;99906.16;10443710;28;20053;-68
2023/12/17 14:53:31;;;;;;;1.73;0.43;;;;;;;-0.42;98.64;99907.44;10415949;28;20520;-68
2023/12/17 14:58:33;;;;;;;3.92;1.27;;;;;;;-0.41;98.92;99901.00;10442825;28;20390;-68
2023/12/17 15:03:37;;;;;;;6.03;1.20;;;;;;;-0.40;99.10;99899.94;10438129;28;20045;-68
2023/12/17 15:08:39;;;;;;;3.45;0.65;;;;;;;-0.43;98.64;99895.00;10442683;28;20030;-68
2023/12/17 15:13:41;;;;;;;6.60;1.93;;;;;;;-0.43;99.03;99903.09;10442038;28;20041;-67
2023/12/17 15:18:44;;;;;;;5.45;0.75;;;;;;;-0.43;99.08;99891.50;10414989;28;21004;-68
2023/12/17 15:23:47;;;;;;;4.22;1.15;;;;;;;-0.41;99.33;99898.31;10401046;28;20533;-68
2023/12/17 15:28:52;;;;;;;4.00;1.75;;;;;;;-0.36;98.59;99884.94;10431476;28;20037;-68
2023/12/17 15:33:55;;;;;;;4.07;0.80;;;;;;;-0.40;98.62;99891.03;10438740;28;20033;-69
2023/12/17 15:38:58;;;;;;;6.22;1.10;;;;;;;-0.37;98.96;99887.88;10440519;28;20068;-68
2023/12/17 15:44:00;;;;;;;3.90;0.63;;;;;;;-0.40;98.35;99883.78;10438120;28;20060;-68
2023/12/17 15:49:03;;;;;;;2.05;0.60;;;;;;;-0.41;98.42;99894.78;10426015;28;20421;-68
2023/12/17 15:54:06;;;;;;;5.65;1.05;;;;;;;-0.40;98.21;99875.69;10437765;28;20034;-68
2023/12/17 15:59:10;;;;;;;3.60;1.10;;;;;;;-0.42;98.19;99879.66;10432344;28;20046;-65
2023/12/17 16:04:14;;;;;;;4.80;1.63;;;;;;;-0.34;98.54;99879.38;10438320;28;20509;-64
2023/12/17 16:09:17;;;;;;;7.47;1.45;;;;;;;-0.31;98.33;99882.41;10446534;28;20041;-67
2023/12/17 16:14:19;;;;;;;3.58;0.70;;;;;;;-0.28;97.84;99883.00;10445111;28;20041;-67
2023/12/17 16:19:22;;;;;;;4.43;1.08;;;;;;;-0.33;97.63;99878.31;10441397;28;20045;-67
2023/12/17 16:24:26;;;;;;;4.10;1.13;;;;;;;-0.35;97.50;99889.31;10439924;28;20639;-68
2023/12/17 16:29:28;;;;;;;4.43;1.08;;;;;;;-0.36;98.64;99886.81;10438777;28;20428;-67
2023/12/17 16:34:31;;;;;;;8.45;1.17;;;;;;;-0.45;99.60;99878.25;10444496;28;20049;-68
2023/12/17 16:39:35;;;;;;;8.48;2.10;;;;;;;-0.56;100.00;99884.41;10446415;28;20050;-67
2023/12/17 16:44:38;;;;;;;6.90;2.13;;;;;;;-0.62;100.00;99883.44;10439045;28;20468;-68
2023/12/17 16:49:40;;;;;;;1.80;0.82;;;;;;;-0.71;100.00;99883.97;10430757;28;20421;-67
2023/12/17 16:54:43;;;;;;;3.53;1.60;;;;;;;-0.75;100.00;99872.00;10419866;28;20038;-67
2023/12/17 16:59:48;;;;;;;4.28;1.13;;;;;;;-0.87;100.00;99869.22;10434048;28;20033;-68
2023/12/17 17:04:50;;;;;;;1.35;1.05;;;;;;;-0.90;100.00;99877.78;10447767;28;20045;-67
2023/12/17 17:09:53;;;;;;;4.32;1.08;;;;;;;-0.97;100.00;99880.56;10443424;28;20037;-67
2023/12/17 17:14:56;;;;;;;1.65;0.70;;;;;;;-0.91;100.00;99863.47;10442434;28;20034;-68
2023/12/17 17:19:58;;;;;;;3.65;0.90;;;;;;;-0.93;100.00;99862.88;10427710;28;20034;-67
2023/12/17 17:25:00;;;;;;;2.08;0.90;;;;;;;-0.96;100.00;99854.44;10443288;28;20528;-63
2023/12/17 17:30:03;;;;;;;3.17;0.70;;;;;;;-0.94;100.00;99858.56;10442210;28;20034;-62
2023/12/17 17:35:08;;;;;;;4.65;0.77;;;;;;;-0.92;100.00;99869.09;10444165;28;20041;-66
2023/12/17 17:40:11;;;;;;;0.45;0.40;;;;;;;-0.97;100.00;99853.63;10442619;28;20037;-65
2023/12/17 17:45:13;;;;;;;1.95;0.82;;;;;;;-0.92;100.00;99874.47;10443102;28;20050;-64
2023/12/17 17:50:15;;;;;;;4.47;1.05;;;;;;;-0.95;100.00;99856.91;10442125;28;20033;-63
2023/12/17 17:55:18;;;;;;;2.22;0.70;;;;;;;-0.94;100.00;99852.34;10440053;28;20434;-64
2023/12/17 18:00:20;;;;;;;1.02;0.93;;;;;;;-0.96;100.00;99849.88;10442854;28;20113;-63
2023/12/17 18:05:23;;;;;;;2.15;1.00;;;;;;;-0.94;100.00;99820.84;10441362;28;20721;-64
2023/12/17 18:10:26;;;;;;;2.80;1.27;;;;;;;-0.88;100.00;99821.00;10433132;28;20547;-64
2023/12/17 18:15:28;;;;;;;3.17;0.88;;;;;;;-0.77;100.00;99810.28;10437508;28;20429;-64
2023/12/17 18:20:31;;;;;;;2.90;0.50;;;;;;;-0.75;100.00;99804.66;10439406;28;20049;-65
2023/12/17 18:25:35;;;;;;;5.65;0.70;;;;;;;-0.68;100.00;99821.56;10440975;28;20041;-64
2023/12/17 18:30:37;;;;;;;4.78;1.00;;;;;;;-0.70;100.00;99815.56;10432261;28;20045;-65
2023/12/17 18:35:39;;;;;;;0.82;0.50;;;;;;;-0.64;100.00;99820.06;10421148;28;20037;-64
2023/12/17 18:40:42;;;;;;;1.85;0.68;;;;;;;-0.63;100.00;99824.41;10438062;28;20037;-64
2023/12/17 18:45:44;;;;;;;2.58;0.40;;;;;;;-0.70;100.00;99815.56;10434344;28;20417;-62
2023/12/17 18:50:46;;;;;;;1.55;0.80;;;;;;;-0.72;100.00;99814.97;10439104;28;20033;-63
2023/12/17 18:55:49;;;;;;;3.38;0.73;;;;;;;-0.77;100.00;99817.53;10431818;28;20045;-64
2023/12/17 19:00:51;;;;;;;0.77;0.38;;;;;;;-0.78;100.00;99813.19;10435695;28;20519;-64
2023/12/17 19:05:53;;;;;;;0.95;0.57;;;;;;;-0.70;100.00;99821.78;10438423;28;20041;-65
2023/12/17 19:10:56;;;;;;;1.73;0.65;;;;;;;-0.77;100.00;99815.66;10434460;28;20044;-64
2023/12/17 19:15:58;;;;;;;1.15;0.40;;;;;;;-0.74;100.00;99814.38;10440161;28;20037;-66
2023/12/17 19:21:01;;;;;;;5.65;0.90;;;;;;;-0.79;100.00;99806.19;10435223;28;20053;-65
2023/12/17 19:26:07;;;;;;;2.03;0.68;;;;;;;-0.73;100.00;99807.94;10441561;28;20045;-65
2023/12/17 19:31:13;;;;;;;2.38;0.60;;;;;;;-0.76;100.00;99811.09;10434008;28;20037;-65
2023/12/17 19:36:16;;;;;;;1.55;0.63;;;;;;;-0.78;100.00;99799.72;10441502;28;20042;-64
2023/12/17 19:41:19;;;;;;;2.78;0.90;;;;;;;-0.87;100.00;99809.16;10447141;28;20037;-63
2023/12/17 19:46:21;;;;;;;2.67;1.13;;;;;;;-0.95;100.00;99816.50;10448069;28;20045;-63
2023/12/17 19:51:25;;;;;;;2.28;1.02;;;;;;;-0.98;100.00;99806.19;10454302;28;20049;-64
2023/12/17 19:56:27;;;;;;;4.38;1.00;;;;;;;-0.94;100.00;99799.31;10450523;28;20033;-64
2023/12/17 20:01:31;;;;;;;1.00;0.75;;;;;;;-0.86;100.00;99810.84;10449714;28;20041;-62
2023/12/17 20:06:33;;;;;;;4.43;0.45;;;;;;;-0.88;100.00;99791.38;10450317;28;20045;-63
2023/12/17 20:11:35;;;;;;;2.42;0.68;;;;;;;-0.86;100.00;99794.69;10448177;28;20429;-63
2023/12/17 20:16:38;;;;;;;1.95;0.95;;;;;;;-0.88;100.00;99794.06;10443635;28;20034;-63
2023/12/17 20:21:40;;;;;;;1.30;0.50;;;;;;;-0.88;100.00;99792.19;10448303;28;20042;-64
2023/12/17 20:26:42;;;;;;;7.97;1.75;;;;;;;-0.97;100.00;99794.38;10437688;28;20423;-61
2023/12/17 20:31:45;;;;;;;4.43;1.10;;;;;;;-0.94;100.00;99787.72;10446876;28;20033;-63
2023/12/17 20:36:47;;;;;;;7.82;2.22;;;;;;;-0.80;100.00;99785.69;10443427;28;20060;-63
2023/12/17 20:41:50;;;;;;;5.18;1.10;;;;;;;-0.80;100.00;99767.66;10446538;28;20050;-62
2023/12/17 20:46:53;;;;;;;11.07;1.75;;;;;;;-0.82;100.00;99768.94;10445894;28;20041;-63
2023/12/17 20:51:55;;;;;;;6.32;1.88;;;;;;;-0.78;99.90;99762.03;10439149;28;20302;-64
2023/12/17 20:56:58;;;;;;;7.28;1.35;;;;;;;-0.72;100.00;99759.22;10436527;28;20037;-64
2023/12/17 21:02:01;;;;;;;7.13;1.30;;;;;;;-0.72;99.98;99763.78;10444307;28;20048;-64
2023/12/17 21:07:04;;;;;;;3.92;1.10;;;;;;;-0.73;99.87;99760.28;10450781;28;20038;-63
2023/12/17 21:12:06;;;;;;;16.83;11.50;;;;;;;-0.67;98.26;99775.53;10444276;28;20036;-65
2023/12/17 21:17:10;;;;;;;4.03;1.48;;;;;;;-0.67;97.17;99767.47;10443082;28;20045;-65
2023/12/17 21:22:12;;;;;;;2.85;1.02;;;;;;;-0.74;96.99;99765.91;10446189;28;20041;-63
2023/12/17 21:27:23;;;;;;;4.43;1.42;;;;;;;-0.76;96.47;99762.63;10466829;28;20124;-64
2023/12/17 21:32:26;;;;;;;3.95;1.40;;;;;;;-0.85;96.65;99772.91;10453632;28;20049;-64
2023/12/17 21:37:28;;;;;;;4.93;1.58;;;;;;;-0.85;96.74;99774.78;10443616;28;20053;-64
2023/12/17 21:42:31;;;;;;;6.57;1.52;;;;;;;-0.88;96.86;99769.81;10452186;28;20057;-64
2023/12/17 21:47:33;;;;;;;4.90;1.70;;;;;;;-0.83;96.64;99775.38;10441054;28;20068;-64
2023/12/17 21:52:36;;;;;;;4.57;1.20;;;;;;;-0.84;96.52;99765.66;10445122;28;20060;-63
2023/12/17 21:57:38;;;;;;;3.40;1.00;;;;;;;-0.82;97.10;99779.69;10443710;28;20413;-64
2023/12/17 22:02:40;;;;;;;6.80;2.28;;;;;;;-0.78;97.67;99775.50;10440393;28;20041;-65
2023/12/17 22:07:43;;;;;;;2.28;0.95;;;;;;;-0.69;97.30;99766.88;10442031;28;20039;-66
2023/12/17 22:12:46;;;;;;;2.50;1.00;;;;;;;-0.62;97.68;99782.94;10438604;28;20053;-65
2023/12/17 22:17:48;;;;;;;4.07;1.48;;;;;;;-0.48;99.03;99795.16;10438875;28;20041;-65
2023/12/17 22:22:50;;;;;;;2.50;1.08;;;;;;;-0.39;98.65;99807.25;10437999;28;20045;-65
2023/12/17 22:27:53;;;;;;;4.57;0.98;;;;;;;-0.31;99.29;99808.81;10442020;28;20414;-65
2023/12/17 22:32:55;;;;;;;5.63;1.77;;;;;;;-0.25;99.59;99793.56;10436401;28;20694;-65
2023/12/17 22:37:57;;;;;;;2.60;0.90;;;;;;;-0.22;99.79;99790.41;10441375;28;20416;-65
2023/12/17 22:43:00;;;;;;;4.03;1.13;;;;;;;-0.19;100.00;99798.03;10441257;28;20536;-65
2023/12/17 22:48:03;;;;;;;8.07;1.50;;;;;;;-0.14;100.00;99795.50;10442819;28;20037;-65
2023/12/17 22:53:06;;;;;;;3.47;1.30;;;;;;;-0.08;100.00;99799.94;10409429;28;20041;-66
2023/12/17 22:58:08;;;;;;;6.03;1.20;;;;;;;-0.09;100.00;99798.31;10418942;28;20029;-66
2023/12/17 23:03:11;;;;;;;3.40;0.95;;;;;;;-0.10;100.00;99784.00;10437131;28;20037;-66
2023/12/17 23:08:13;;;;;;;3.65;0.80;;;;;;;-0.14;100.00;99798.19;10440130;28;20034;-65
2023/12/17 23:13:16;;;;;;;1.80;0.98;;;;;;;-0.23;100.00;99799.56;10437952;28;20044;-65
2023/12/17 23:18:19;;;;;;;5.90;1.10;;;;;;;-0.26;100.00;99808.13;10437161;28;20056;-65
2023/12/17 23:23:22;;;;;;;2.88;1.10;;;;;;;-0.26;99.85;99800.03;10439724;28;20046;-65